sensor_id;sensor_type;location;lat;lon;timestamp;pressure;altitude;pressure_sealevel;temperature;humidity
70009;BME280;59542;37.950;-122.338;2023-04-21T00:01:20;102364.31;;;22.41;29.77
70009;BME280;59542;37.950;-122.338;2023-04-21T00:03:46;102364.06;;;22.26;29.72
70009;BME280;59542;37.950;-122.338;2023-04-21T00:06:13;102366.09;;;21.73;30.44
70009;BME280;59542;37.950;-122.338;2023-04-21T00:08:47;102362.03;;;21.47;30.03
70009;BME280;59542;37.950;-122.338;2023-04-21T00:11:13;102368.75;;;21.16;32.71
70009;BME280;59542;37.950;-122.338;2023-04-21T00:13:40;102364.72;;;21.87;33.03
70009;BME280;59542;37.950;-122.338;2023-04-21T00:16:06;102355.16;;;22.02;33.17
70009;BME280;59542;37.950;-122.338;2023-04-21T00:18:32;102352.44;;;22.02;33.74
70009;BME280;59542;37.950;-122.338;2023-04-21T00:20:59;102354.72;;;21.36;33.44
70009;BME280;59542;37.950;-122.338;2023-04-21T00:23:25;102365.91;;;21.63;34.69
70009;BME280;59542;37.950;-122.338;2023-04-21T00:25:51;102360.78;;;21.95;34.01
70009;BME280;59542;37.950;-122.338;2023-04-21T00:28:18;102364.97;;;21.05;32.61
70009;BME280;59542;37.950;-122.338;2023-04-21T00:30:44;102365.63;;;21.36;33.25
70009;BME280;59542;37.950;-122.338;2023-04-21T00:33:10;102364.63;;;20.78;34.48
70009;BME280;59542;37.950;-122.338;2023-04-21T00:35:37;102367.81;;;20.99;34.74
70009;BME280;59542;37.950;-122.338;2023-04-21T00:38:03;102369.31;;;21.18;32.19
70009;BME280;59542;37.950;-122.338;2023-04-21T00:40:29;102366.75;;;20.76;34.38
70009;BME280;59542;37.950;-122.338;2023-04-21T00:42:55;102364.56;;;20.31;34.43
70009;BME280;59542;37.950;-122.338;2023-04-21T00:45:22;102363.31;;;20.93;34.55
70009;BME280;59542;37.950;-122.338;2023-04-21T00:47:48;102370.97;;;21.19;33.51
70009;BME280;59542;37.950;-122.338;2023-04-21T00:50:14;102372.03;;;21.18;34.34
70009;BME280;59542;37.950;-122.338;2023-04-21T00:52:42;102375.44;;;21.25;32.88
70009;BME280;59542;37.950;-122.338;2023-04-21T00:55:11;102364.56;;;21.37;30.52
70009;BME280;59542;37.950;-122.338;2023-04-21T00:57:38;102361.88;;;21.14;30.88
70009;BME280;59542;37.950;-122.338;2023-04-21T01:00:05;102356.16;;;21.15;29.86
70009;BME280;59542;37.950;-122.338;2023-04-21T01:02:38;102351.19;;;21.24;30.31
70009;BME280;59542;37.950;-122.338;2023-04-21T01:05:05;102355.44;;;21.31;30.02
70009;BME280;59542;37.950;-122.338;2023-04-21T01:07:34;102354.84;;;21.41;30.98
70009;BME280;59542;37.950;-122.338;2023-04-21T01:10:01;102357.47;;;21.24;32.20
70009;BME280;59542;37.950;-122.338;2023-04-21T01:12:28;102353.81;;;21.07;31.12
70009;BME280;59542;37.950;-122.338;2023-04-21T01:14:55;102354.78;;;21.01;30.70
70009;BME280;59542;37.950;-122.338;2023-04-21T01:17:21;102357.03;;;20.92;31.25
70009;BME280;59542;37.950;-122.338;2023-04-21T01:19:49;102355.16;;;20.69;30.36
70009;BME280;59542;37.950;-122.338;2023-04-21T01:22:16;102371.97;;;20.54;32.02
70009;BME280;59542;37.950;-122.338;2023-04-21T01:24:45;102362.56;;;20.39;31.34
70009;BME280;59542;37.950;-122.338;2023-04-21T01:27:17;102367.03;;;20.21;31.62
70009;BME280;59542;37.950;-122.338;2023-04-21T01:29:45;102362.94;;;19.89;31.36
70009;BME280;59542;37.950;-122.338;2023-04-21T01:32:17;102353.13;;;19.88;32.61
70009;BME280;59542;37.950;-122.338;2023-04-21T01:34:43;102365.00;;;19.75;32.60
70009;BME280;59542;37.950;-122.338;2023-04-21T01:37:12;102356.41;;;19.60;32.67
70009;BME280;59542;37.950;-122.338;2023-04-21T01:39:40;102364.72;;;19.46;33.38
70009;BME280;59542;37.950;-122.338;2023-04-21T01:42:07;102360.03;;;19.35;32.77
70009;BME280;59542;37.950;-122.338;2023-04-21T01:44:34;102360.53;;;19.32;33.77
70009;BME280;59542;37.950;-122.338;2023-04-21T01:47:00;102370.53;;;19.13;34.15
70009;BME280;59542;37.950;-122.338;2023-04-21T01:49:27;102365.56;;;19.10;34.26
70009;BME280;59542;37.950;-122.338;2023-04-21T01:51:53;102357.63;;;18.65;34.62
70009;BME280;59542;37.950;-122.338;2023-04-21T01:54:19;102354.38;;;18.57;35.35
70009;BME280;59542;37.950;-122.338;2023-04-21T01:56:46;102353.81;;;18.48;35.03
70009;BME280;59542;37.950;-122.338;2023-04-21T01:59:12;102345.69;;;18.48;35.63
70009;BME280;59542;37.950;-122.338;2023-04-21T02:01:38;102343.22;;;18.22;35.55
70009;BME280;59542;37.950;-122.338;2023-04-21T02:04:05;102344.25;;;18.20;35.32
70009;BME280;59542;37.950;-122.338;2023-04-21T02:06:31;102347.22;;;18.12;36.14
70009;BME280;59542;37.950;-122.338;2023-04-21T02:08:57;102360.72;;;17.87;36.48
70009;BME280;59542;37.950;-122.338;2023-04-21T02:11:24;102356.13;;;17.94;37.27
70009;BME280;59542;37.950;-122.338;2023-04-21T02:13:54;102352.41;;;17.89;37.60
70009;BME280;59542;37.950;-122.338;2023-04-21T02:16:21;102362.59;;;17.87;38.21
70009;BME280;59542;37.950;-122.338;2023-04-21T02:18:55;102354.56;;;17.74;37.77
70009;BME280;59542;37.950;-122.338;2023-04-21T02:21:22;102357.56;;;17.52;38.64
70009;BME280;59542;37.950;-122.338;2023-04-21T02:23:50;102361.22;;;17.64;38.59
70009;BME280;59542;37.950;-122.338;2023-04-21T02:26:16;102361.19;;;17.33;38.36
70009;BME280;59542;37.950;-122.338;2023-04-21T02:28:43;102365.50;;;17.40;38.52
70009;BME280;59542;37.950;-122.338;2023-04-21T02:31:09;102360.53;;;17.31;37.82
70009;BME280;59542;37.950;-122.338;2023-04-21T02:33:36;102359.34;;;17.13;38.58
70009;BME280;59542;37.950;-122.338;2023-04-21T02:36:02;102364.41;;;16.97;38.34
70009;BME280;59542;37.950;-122.338;2023-04-21T02:38:28;102365.66;;;16.94;38.85
70009;BME280;59542;37.950;-122.338;2023-04-21T02:40:56;102365.25;;;16.71;39.68
70009;BME280;59542;37.950;-122.338;2023-04-21T02:43:22;102371.09;;;16.61;39.49
70009;BME280;59542;37.950;-122.338;2023-04-21T02:45:49;102373.16;;;16.46;39.69
70009;BME280;59542;37.950;-122.338;2023-04-21T02:48:15;102372.53;;;16.50;39.65
70009;BME280;59542;37.950;-122.338;2023-04-21T02:50:48;102371.03;;;16.15;40.47
70009;BME280;59542;37.950;-122.338;2023-04-21T02:53:15;102374.56;;;16.02;40.94
70009;BME280;59542;37.950;-122.338;2023-04-21T02:55:41;102378.50;;;15.99;41.42
70009;BME280;59542;37.950;-122.338;2023-04-21T02:58:08;102380.56;;;15.97;41.15
70009;BME280;59542;37.950;-122.338;2023-04-21T03:00:35;102384.53;;;15.95;41.51
70009;BME280;59542;37.950;-122.338;2023-04-21T03:03:02;102382.19;;;15.85;42.02
70009;BME280;59542;37.950;-122.338;2023-04-21T03:05:28;102387.59;;;15.85;42.55
70009;BME280;59542;37.950;-122.338;2023-04-21T03:07:54;102381.75;;;15.81;42.97
70009;BME280;59542;37.950;-122.338;2023-04-21T03:10:21;102387.72;;;15.64;43.35
70009;BME280;59542;37.950;-122.338;2023-04-21T03:12:47;102378.59;;;15.65;43.66
70009;BME280;59542;37.950;-122.338;2023-04-21T03:15:13;102388.94;;;15.61;43.35
70009;BME280;59542;37.950;-122.338;2023-04-21T03:17:40;102395.78;;;15.57;43.64
70009;BME280;59542;37.950;-122.338;2023-04-21T03:20:07;102392.63;;;15.53;43.76
70009;BME280;59542;37.950;-122.338;2023-04-21T03:22:37;102403.44;;;15.53;44.09
70009;BME280;59542;37.950;-122.338;2023-04-21T03:25:04;102397.66;;;15.56;43.93
70009;BME280;59542;37.950;-122.338;2023-04-21T03:27:32;102400.84;;;15.67;43.89
70009;BME280;59542;37.950;-122.338;2023-04-21T03:29:59;102402.16;;;15.84;43.41
70009;BME280;59542;37.950;-122.338;2023-04-21T03:32:25;102405.81;;;15.70;43.71
70009;BME280;59542;37.950;-122.338;2023-04-21T03:34:51;102414.38;;;15.80;43.79
70009;BME280;59542;37.950;-122.338;2023-04-21T03:37:18;102413.16;;;15.89;43.93
70009;BME280;59542;37.950;-122.338;2023-04-21T03:39:44;102415.03;;;15.89;43.69
70009;BME280;59542;37.950;-122.338;2023-04-21T03:42:10;102417.94;;;15.87;43.72
70009;BME280;59542;37.950;-122.338;2023-04-21T03:44:36;102426.91;;;15.94;43.69
70009;BME280;59542;37.950;-122.338;2023-04-21T03:47:02;102417.31;;;15.85;44.09
70009;BME280;59542;37.950;-122.338;2023-04-21T03:49:29;102421.31;;;16.02;44.04
70009;BME280;59542;37.950;-122.338;2023-04-21T03:51:55;102426.25;;;15.92;44.34
70009;BME280;59542;37.950;-122.338;2023-04-21T03:54:21;102427.28;;;15.84;44.39
70009;BME280;59542;37.950;-122.338;2023-04-21T03:56:48;102420.00;;;15.85;44.55
70009;BME280;59542;37.950;-122.338;2023-04-21T03:59:14;102425.19;;;15.87;44.96
70009;BME280;59542;37.950;-122.338;2023-04-21T04:01:40;102425.41;;;15.92;45.05
70009;BME280;59542;37.950;-122.338;2023-04-21T04:04:07;102432.44;;;15.79;45.67
70009;BME280;59542;37.950;-122.338;2023-04-21T04:06:33;102444.06;;;15.73;45.68
70009;BME280;59542;37.950;-122.338;2023-04-21T04:09:00;102444.44;;;15.70;45.68
70009;BME280;59542;37.950;-122.338;2023-04-21T04:11:30;102448.63;;;15.73;45.25
70009;BME280;59542;37.950;-122.338;2023-04-21T04:13:57;102439.72;;;15.79;45.13
70009;BME280;59542;37.950;-122.338;2023-04-21T04:16:23;102439.28;;;15.75;45.33
70009;BME280;59542;37.950;-122.338;2023-04-21T04:18:50;102450.66;;;15.64;45.52
70009;BME280;59542;37.950;-122.338;2023-04-21T04:21:16;102446.06;;;15.65;45.43
70009;BME280;59542;37.950;-122.338;2023-04-21T04:23:42;102450.59;;;15.57;45.99
70009;BME280;59542;37.950;-122.338;2023-04-21T04:26:09;102459.06;;;15.54;46.14
70009;BME280;59542;37.950;-122.338;2023-04-21T04:28:36;102462.19;;;15.51;46.42
70009;BME280;59542;37.950;-122.338;2023-04-21T04:31:03;102464.16;;;15.36;46.94
70009;BME280;59542;37.950;-122.338;2023-04-21T04:33:30;102458.56;;;15.38;46.86
70009;BME280;59542;37.950;-122.338;2023-04-21T04:35:56;102451.97;;;15.81;46.01
70009;BME280;59542;37.950;-122.338;2023-04-21T04:38:22;102453.50;;;15.56;46.51
70009;BME280;59542;37.950;-122.338;2023-04-21T04:40:55;102460.38;;;15.30;47.27
70009;BME280;59542;37.950;-122.338;2023-04-21T04:43:26;102458.59;;;15.10;47.75
70009;BME280;59542;37.950;-122.338;2023-04-21T04:45:53;102459.41;;;15.38;46.93
70009;BME280;59542;37.950;-122.338;2023-04-21T04:48:19;102457.00;;;15.50;46.73
70009;BME280;59542;37.950;-122.338;2023-04-21T04:50:45;102461.72;;;15.41;47.25
70009;BME280;59542;37.950;-122.338;2023-04-21T04:53:12;102466.59;;;14.96;48.24
70009;BME280;59542;37.950;-122.338;2023-04-21T04:55:38;102466.66;;;14.82;48.62
70009;BME280;59542;37.950;-122.338;2023-04-21T04:58:04;102463.03;;;14.10;50.48
70009;BME280;59542;37.950;-122.338;2023-04-21T05:00:32;102471.00;;;14.04;50.96
70009;BME280;59542;37.950;-122.338;2023-04-21T05:02:58;102475.47;;;14.11;51.13
70009;BME280;59542;37.950;-122.338;2023-04-21T05:05:24;102468.53;;;13.87;51.64
70009;BME280;59542;37.950;-122.338;2023-04-21T05:07:50;102470.72;;;13.77;51.65
70009;BME280;59542;37.950;-122.338;2023-04-21T05:10:17;102467.56;;;13.73;52.31
70009;BME280;59542;37.950;-122.338;2023-04-21T05:12:43;102484.16;;;13.62;52.25
70009;BME280;59542;37.950;-122.338;2023-04-21T05:15:09;102481.66;;;13.46;52.58
70009;BME280;59542;37.950;-122.338;2023-04-21T05:17:36;102484.44;;;13.23;53.36
70009;BME280;59542;37.950;-122.338;2023-04-21T05:20:06;102478.03;;;13.39;53.19
70009;BME280;59542;37.950;-122.338;2023-04-21T05:22:36;102478.78;;;13.10;54.11
70009;BME280;59542;37.950;-122.338;2023-04-21T05:25:04;102486.47;;;12.60;56.02
70009;BME280;59542;37.950;-122.338;2023-04-21T05:27:30;102491.88;;;13.13;54.93
70009;BME280;59542;37.950;-122.338;2023-04-21T05:29:56;102490.00;;;13.22;54.13
70009;BME280;59542;37.950;-122.338;2023-04-21T05:32:23;102486.44;;;13.21;55.03
70009;BME280;59542;37.950;-122.338;2023-04-21T05:34:49;102493.25;;;13.09;54.55
70009;BME280;59542;37.950;-122.338;2023-04-21T05:37:15;102496.56;;;12.96;55.05
70009;BME280;59542;37.950;-122.338;2023-04-21T05:39:41;102499.03;;;13.20;54.52
70009;BME280;59542;37.950;-122.338;2023-04-21T05:42:10;102500.09;;;13.34;54.63
70009;BME280;59542;37.950;-122.338;2023-04-21T05:44:37;102494.00;;;13.40;54.54
70009;BME280;59542;37.950;-122.338;2023-04-21T05:47:04;102494.09;;;13.47;54.08
70009;BME280;59542;37.950;-122.338;2023-04-21T05:49:31;102486.50;;;13.13;55.40
70009;BME280;59542;37.950;-122.338;2023-04-21T05:51:57;102488.16;;;13.14;55.59
70009;BME280;59542;37.950;-122.338;2023-04-21T05:54:23;102481.34;;;13.26;55.08
70009;BME280;59542;37.950;-122.338;2023-04-21T05:56:49;102490.53;;;13.32;55.55
70009;BME280;59542;37.950;-122.338;2023-04-21T05:59:16;102488.56;;;13.11;55.76
70009;BME280;59542;37.950;-122.338;2023-04-21T06:01:42;102481.63;;;13.31;55.54
70009;BME280;59542;37.950;-122.338;2023-04-21T06:04:09;102489.63;;;13.39;55.14
70009;BME280;59542;37.950;-122.338;2023-04-21T06:06:35;102478.03;;;13.39;55.03
70009;BME280;59542;37.950;-122.338;2023-04-21T06:09:01;102485.38;;;13.45;54.76
70009;BME280;59542;37.950;-122.338;2023-04-21T06:11:27;102481.09;;;13.51;54.71
70009;BME280;59542;37.950;-122.338;2023-04-21T06:13:54;102482.13;;;13.50;55.04
70009;BME280;59542;37.950;-122.338;2023-04-21T06:16:22;102484.34;;;13.46;55.16
70009;BME280;59542;37.950;-122.338;2023-04-21T06:18:49;102482.31;;;13.33;55.31
70009;BME280;59542;37.950;-122.338;2023-04-21T06:21:15;102476.44;;;13.30;55.65
70009;BME280;59542;37.950;-122.338;2023-04-21T06:23:41;102473.34;;;13.18;56.17
70009;BME280;59542;37.950;-122.338;2023-04-21T06:26:08;102473.56;;;13.31;55.65
70009;BME280;59542;37.950;-122.338;2023-04-21T06:28:35;102474.97;;;13.42;55.19
70009;BME280;59542;37.950;-122.338;2023-04-21T06:31:02;102471.00;;;13.53;54.85
70009;BME280;59542;37.950;-122.338;2023-04-21T06:33:29;102461.63;;;13.34;55.49
70009;BME280;59542;37.950;-122.338;2023-04-21T06:35:56;102469.31;;;13.37;55.80
70009;BME280;59542;37.950;-122.338;2023-04-21T06:38:22;102466.63;;;12.99;57.04
70009;BME280;59542;37.950;-122.338;2023-04-21T06:40:49;102464.41;;;13.40;56.35
70009;BME280;59542;37.950;-122.338;2023-04-21T06:43:15;102469.41;;;13.29;56.46
70009;BME280;59542;37.950;-122.338;2023-04-21T06:45:41;102468.03;;;13.33;56.43
70009;BME280;59542;37.950;-122.338;2023-04-21T06:48:08;102465.09;;;13.19;56.76
70009;BME280;59542;37.950;-122.338;2023-04-21T06:50:34;102454.84;;;13.23;57.25
70009;BME280;59542;37.950;-122.338;2023-04-21T06:53:00;102464.25;;;13.19;56.96
70009;BME280;59542;37.950;-122.338;2023-04-21T06:55:26;102463.19;;;13.28;56.93
70009;BME280;59542;37.950;-122.338;2023-04-21T06:57:53;102463.34;;;13.12;56.76
70009;BME280;59542;37.950;-122.338;2023-04-21T07:00:19;102472.44;;;13.26;56.52
70009;BME280;59542;37.950;-122.338;2023-04-21T07:02:45;102466.72;;;13.29;56.56
70009;BME280;59542;37.950;-122.338;2023-04-21T07:05:12;102463.38;;;13.41;56.25
70009;BME280;59542;37.950;-122.338;2023-04-21T07:07:38;102456.16;;;13.27;56.71
70009;BME280;59542;37.950;-122.338;2023-04-21T07:10:04;102453.38;;;13.35;56.77
70009;BME280;59542;37.950;-122.338;2023-04-21T07:12:31;102447.31;;;13.48;56.10
70009;BME280;59542;37.950;-122.338;2023-04-21T07:14:58;102449.38;;;13.46;56.33
70009;BME280;59542;37.950;-122.338;2023-04-21T07:17:24;102447.41;;;13.25;56.76
70009;BME280;59542;37.950;-122.338;2023-04-21T07:19:50;102446.22;;;13.28;57.03
70009;BME280;59542;37.950;-122.338;2023-04-21T07:22:16;102440.44;;;13.16;57.18
70009;BME280;59542;37.950;-122.338;2023-04-21T07:24:43;102441.44;;;13.15;56.70
70009;BME280;59542;37.950;-122.338;2023-04-21T07:27:09;102454.97;;;13.07;56.80
70009;BME280;59542;37.950;-122.338;2023-04-21T07:29:35;102448.88;;;13.13;56.54
70009;BME280;59542;37.950;-122.338;2023-04-21T07:32:02;102448.50;;;13.16;56.69
70009;BME280;59542;37.950;-122.338;2023-04-21T07:34:28;102448.53;;;12.93;56.87
70009;BME280;59542;37.950;-122.338;2023-04-21T07:36:55;102442.81;;;12.96;57.20
70009;BME280;59542;37.950;-122.338;2023-04-21T07:39:21;102448.56;;;13.08;56.66
70009;BME280;59542;37.950;-122.338;2023-04-21T07:41:47;102447.56;;;13.09;56.65
70009;BME280;59542;37.950;-122.338;2023-04-21T07:44:13;102452.09;;;13.08;56.80
70009;BME280;59542;37.950;-122.338;2023-04-21T07:46:40;102449.69;;;13.13;56.73
70009;BME280;59542;37.950;-122.338;2023-04-21T07:49:06;102451.75;;;13.11;56.82
70009;BME280;59542;37.950;-122.338;2023-04-21T07:51:32;102449.91;;;13.27;57.07
70009;BME280;59542;37.950;-122.338;2023-04-21T07:53:59;102455.31;;;13.41;56.61
70009;BME280;59542;37.950;-122.338;2023-04-21T07:56:25;102462.06;;;13.37;56.73
70009;BME280;59542;37.950;-122.338;2023-04-21T07:58:51;102457.53;;;13.38;57.22
70009;BME280;59542;37.950;-122.338;2023-04-21T08:01:18;102458.25;;;13.32;57.61
70009;BME280;59542;37.950;-122.338;2023-04-21T08:03:45;102454.38;;;13.34;57.39
70009;BME280;59542;37.950;-122.338;2023-04-21T08:06:11;102452.34;;;13.22;57.91
70009;BME280;59542;37.950;-122.338;2023-04-21T08:08:37;102439.75;;;13.22;57.41
70009;BME280;59542;37.950;-122.338;2023-04-21T08:11:03;102446.28;;;13.19;57.91
70009;BME280;59542;37.950;-122.338;2023-04-21T08:13:30;102447.28;;;13.18;58.21
70009;BME280;59542;37.950;-122.338;2023-04-21T08:15:57;102436.34;;;13.20;58.12
70009;BME280;59542;37.950;-122.338;2023-04-21T08:18:23;102433.66;;;13.20;58.25
70009;BME280;59542;37.950;-122.338;2023-04-21T08:20:49;102434.16;;;13.24;58.40
70009;BME280;59542;37.950;-122.338;2023-04-21T08:23:17;102424.31;;;13.16;58.25
70009;BME280;59542;37.950;-122.338;2023-04-21T08:25:44;102431.16;;;13.18;57.76
70009;BME280;59542;37.950;-122.338;2023-04-21T08:28:10;102433.38;;;13.15;58.14
70009;BME280;59542;37.950;-122.338;2023-04-21T08:30:37;102430.84;;;13.22;57.62
70009;BME280;59542;37.950;-122.338;2023-04-21T08:33:03;102422.44;;;13.02;58.65
70009;BME280;59542;37.950;-122.338;2023-04-21T08:35:29;102427.06;;;13.08;58.39
70009;BME280;59542;37.950;-122.338;2023-04-21T08:37:55;102416.50;;;13.06;58.05
70009;BME280;59542;37.950;-122.338;2023-04-21T08:40:31;102422.34;;;13.10;57.69
70009;BME280;59542;37.950;-122.338;2023-04-21T08:42:57;102416.03;;;13.03;57.39
70009;BME280;59542;37.950;-122.338;2023-04-21T08:45:25;102417.59;;;12.97;56.87
70009;BME280;59542;37.950;-122.338;2023-04-21T08:47:54;102425.75;;;12.89;56.62
70009;BME280;59542;37.950;-122.338;2023-04-21T08:50:24;102420.84;;;12.92;57.00
70009;BME280;59542;37.950;-122.338;2023-04-21T08:52:53;102420.84;;;12.92;56.34
70009;BME280;59542;37.950;-122.338;2023-04-21T08:55:23;102421.13;;;12.98;56.27
70009;BME280;59542;37.950;-122.338;2023-04-21T08:57:50;102418.81;;;12.94;55.86
70009;BME280;59542;37.950;-122.338;2023-04-21T09:00:16;102417.97;;;13.09;55.53
70009;BME280;59542;37.950;-122.338;2023-04-21T09:02:57;102413.06;;;12.98;55.87
70009;BME280;59542;37.950;-122.338;2023-04-21T09:05:25;102407.50;;;12.84;56.32
70009;BME280;59542;37.950;-122.338;2023-04-21T09:08:05;102407.84;;;12.81;56.77
70009;BME280;59542;37.950;-122.338;2023-04-21T09:10:33;102406.06;;;12.74;57.58
70009;BME280;59542;37.950;-122.338;2023-04-21T09:13:05;102415.88;;;12.66;57.88
70009;BME280;59542;37.950;-122.338;2023-04-21T09:15:41;102408.94;;;12.72;57.52
70009;BME280;59542;37.950;-122.338;2023-04-21T09:18:13;102409.09;;;12.56;57.96
70009;BME280;59542;37.950;-122.338;2023-04-21T09:20:40;102410.66;;;12.50;57.90
70009;BME280;59542;37.950;-122.338;2023-04-21T09:23:08;102408.00;;;12.42;58.56
70009;BME280;59542;37.950;-122.338;2023-04-21T09:25:38;102416.75;;;12.44;58.14
70009;BME280;59542;37.950;-122.338;2023-04-21T09:28:08;102415.19;;;12.50;58.59
70009;BME280;59542;37.950;-122.338;2023-04-21T09:30:36;102417.38;;;12.46;58.97
70009;BME280;59542;37.950;-122.338;2023-04-21T09:33:04;102416.66;;;12.52;58.89
70009;BME280;59542;37.950;-122.338;2023-04-21T09:35:36;102414.09;;;12.59;59.04
70009;BME280;59542;37.950;-122.338;2023-04-21T09:38:10;102418.56;;;12.43;59.31
70009;BME280;59542;37.950;-122.338;2023-04-21T09:40:37;102412.97;;;12.30;59.37
70009;BME280;59542;37.950;-122.338;2023-04-21T09:43:05;102414.81;;;12.30;59.96
70009;BME280;59542;37.950;-122.338;2023-04-21T09:45:33;102422.69;;;12.31;59.68
70009;BME280;59542;37.950;-122.338;2023-04-21T09:48:00;102423.47;;;12.17;60.22
70009;BME280;59542;37.950;-122.338;2023-04-21T09:50:29;102418.34;;;12.30;60.32
70009;BME280;59542;37.950;-122.338;2023-04-21T09:52:56;102419.25;;;12.23;60.40
70009;BME280;59542;37.950;-122.338;2023-04-21T09:55:26;102429.50;;;12.19;60.13
70009;BME280;59542;37.950;-122.338;2023-04-21T09:57:57;102421.75;;;12.24;60.64
70009;BME280;59542;37.950;-122.338;2023-04-21T10:00:26;102421.50;;;12.34;60.73
70009;BME280;59542;37.950;-122.338;2023-04-21T10:02:54;102421.63;;;12.18;60.65
70009;BME280;59542;37.950;-122.338;2023-04-21T10:05:22;102416.03;;;12.27;60.89
70009;BME280;59542;37.950;-122.338;2023-04-21T10:07:49;102423.16;;;12.12;61.08
70009;BME280;59542;37.950;-122.338;2023-04-21T10:12:51;102420.69;;;12.10;61.99
70009;BME280;59542;37.950;-122.338;2023-04-21T10:15:39;102409.47;;;11.99;61.85
70009;BME280;59542;37.950;-122.338;2023-04-21T10:21:16;102412.34;;;11.97;62.54
70009;BME280;59542;37.950;-122.338;2023-04-21T10:23:47;102411.53;;;12.20;61.44
70009;BME280;59542;37.950;-122.338;2023-04-21T10:26:21;102416.38;;;11.93;61.85
70009;BME280;59542;37.950;-122.338;2023-04-21T10:28:59;102411.63;;;11.72;62.69
70009;BME280;59542;37.950;-122.338;2023-04-21T10:31:51;102406.88;;;11.82;62.24
70009;BME280;59542;37.950;-122.338;2023-04-21T10:34:19;102418.13;;;11.86;62.29
70009;BME280;59542;37.950;-122.338;2023-04-21T10:39:29;102403.69;;;11.87;61.42
70009;BME280;59542;37.950;-122.338;2023-04-21T10:42:18;102407.81;;;11.98;60.39
70009;BME280;59542;37.950;-122.338;2023-04-21T10:47:48;102409.94;;;12.10;61.25
70009;BME280;59542;37.950;-122.338;2023-04-21T10:50:23;102400.13;;;11.95;61.64
70009;BME280;59542;37.950;-122.338;2023-04-21T10:55:25;102403.88;;;11.85;61.95
70009;BME280;59542;37.950;-122.338;2023-04-21T10:57:52;102399.50;;;11.76;62.21
70009;BME280;59542;37.950;-122.338;2023-04-21T11:00:21;102405.91;;;11.83;61.92
70009;BME280;59542;37.950;-122.338;2023-04-21T11:02:55;102409.91;;;11.79;62.38
70009;BME280;59542;37.950;-122.338;2023-04-21T11:05:48;102406.84;;;11.91;61.96
70009;BME280;59542;37.950;-122.338;2023-04-21T11:08:15;102400.84;;;11.88;62.00
70009;BME280;59542;37.950;-122.338;2023-04-21T11:11:01;102411.13;;;12.08;62.40
70009;BME280;59542;37.950;-122.338;2023-04-21T11:13:27;102399.66;;;12.14;62.29
70009;BME280;59542;37.950;-122.338;2023-04-21T11:16:01;102400.06;;;12.03;63.05
70009;BME280;59542;37.950;-122.338;2023-04-21T11:18:42;102397.88;;;12.06;63.35
70009;BME280;59542;37.950;-122.338;2023-04-21T11:21:14;102400.59;;;11.98;63.61
70009;BME280;59542;37.950;-122.338;2023-04-21T11:23:54;102400.78;;;11.97;63.84
70009;BME280;59542;37.950;-122.338;2023-04-21T11:26:35;102405.06;;;11.75;64.85
70009;BME280;59542;37.950;-122.338;2023-04-21T11:29:06;102407.63;;;11.60;65.21
70009;BME280;59542;37.950;-122.338;2023-04-21T11:31:33;102410.50;;;11.58;65.20
70009;BME280;59542;37.950;-122.338;2023-04-21T11:34:01;102405.66;;;11.54;64.96
70009;BME280;59542;37.950;-122.338;2023-04-21T11:36:37;102399.88;;;11.34;66.10
70009;BME280;59542;37.950;-122.338;2023-04-21T11:39:17;102402.63;;;11.57;66.18
70009;BME280;59542;37.950;-122.338;2023-04-21T11:41:48;102406.28;;;11.64;65.45
70009;BME280;59542;37.950;-122.338;2023-04-21T11:44:36;102395.91;;;11.22;67.28
70009;BME280;59542;37.950;-122.338;2023-04-21T11:47:16;102400.84;;;11.41;66.42
70009;BME280;59542;37.950;-122.338;2023-04-21T11:49:53;102406.03;;;11.43;66.28
70009;BME280;59542;37.950;-122.338;2023-04-21T11:52:34;102398.44;;;11.07;67.92
70009;BME280;59542;37.950;-122.338;2023-04-21T11:55:21;102397.09;;;11.11;67.71
70009;BME280;59542;37.950;-122.338;2023-04-21T11:57:49;102396.75;;;11.22;66.77
70009;BME280;59542;37.950;-122.338;2023-04-21T12:00:16;102395.53;;;11.33;66.75
70009;BME280;59542;37.950;-122.338;2023-04-21T12:02:43;102387.31;;;11.26;66.42
70009;BME280;59542;37.950;-122.338;2023-04-21T12:05:13;102387.00;;;11.29;66.68
70009;BME280;59542;37.950;-122.338;2023-04-21T12:07:46;102390.66;;;11.36;66.57
70009;BME280;59542;37.950;-122.338;2023-04-21T12:10:19;102390.38;;;11.23;66.42
70009;BME280;59542;37.950;-122.338;2023-04-21T12:12:46;102378.31;;;11.19;67.11
70009;BME280;59542;37.950;-122.338;2023-04-21T12:15:19;102373.31;;;11.08;67.68
70009;BME280;59542;37.950;-122.338;2023-04-21T12:17:52;102377.97;;;11.22;66.85
70009;BME280;59542;37.950;-122.338;2023-04-21T12:20:21;102381.34;;;11.16;67.12
70009;BME280;59542;37.950;-122.338;2023-04-21T12:22:48;102373.03;;;10.95;67.89
70009;BME280;59542;37.950;-122.338;2023-04-21T12:25:14;102366.69;;;10.79;68.11
70009;BME280;59542;37.950;-122.338;2023-04-21T12:27:57;102370.34;;;10.87;68.01
70009;BME280;59542;37.950;-122.338;2023-04-21T12:30:23;102381.25;;;10.85;68.04
70009;BME280;59542;37.950;-122.338;2023-04-21T12:32:50;102382.44;;;10.74;68.43
70009;BME280;59542;37.950;-122.338;2023-04-21T12:35:16;102384.44;;;10.80;68.61
70009;BME280;59542;37.950;-122.338;2023-04-21T12:37:43;102383.03;;;11.09;67.68
70009;BME280;59542;37.950;-122.338;2023-04-21T12:40:10;102386.41;;;11.03;67.92